createdAt,value
2022-10-07T00:05:34.879Z,102556.00
2022-10-07T00:13:10.163Z,102557.16
2022-10-07T00:20:45.289Z,102558.75
2022-10-07T00:28:19.171Z,102552.09
2022-10-07T00:35:54.398Z,102561.47
2022-10-07T00:43:31.276Z,102540.03
2022-10-07T00:51:09.514Z,102546.69
2022-10-07T00:58:45.815Z,102542.09
2022-10-07T01:06:21.030Z,102530.41
2022-10-07T01:14:04.367Z,102520.19
2022-10-07T01:21:47.239Z,102516.34
2022-10-07T01:29:26.646Z,102485.91
2022-10-07T01:37:02.174Z,102493.56
2022-10-07T01:44:37.580Z,102478.28
2022-10-07T01:52:40.915Z,102478.78
2022-10-07T02:00:17.805Z,102458.19
2022-10-07T02:08:05.658Z,102460.50
2022-10-07T02:15:45.995Z,102467.28
2022-10-07T02:23:23.569Z,102455.41
2022-10-07T02:31:03.804Z,102451.69
2022-10-07T02:38:39.816Z,102443.44
2022-10-07T02:46:22.658Z,102431.63
2022-10-07T02:53:58.077Z,102427.91
2022-10-07T03:01:38.564Z,102419.88
2022-10-07T03:09:12.999Z,102425.72
2022-10-07T03:16:48.091Z,102406.88
2022-10-07T03:24:21.852Z,102397.84
2022-10-07T03:31:56.990Z,102398.28
2022-10-07T03:39:31.124Z,102397.06
2022-10-07T03:47:10.670Z,102389.63
2022-10-07T03:54:44.909Z,102381.38
2022-10-07T04:02:20.416Z,102374.03
2022-10-07T04:09:54.130Z,102378.81
2022-10-07T04:17:29.406Z,102370.66
2022-10-07T04:25:20.693Z,102372.97
2022-10-07T04:32:55.970Z,102359.44
2022-10-07T04:40:31.012Z,102356.50
2022-10-07T04:48:06.697Z,102343.72
2022-10-07T04:55:42.387Z,102336.63
2022-10-07T05:03:19.511Z,102332.84
2022-10-07T05:10:56.198Z,102325.66
2022-10-07T05:18:33.326Z,102323.66
2022-10-07T05:26:09.278Z,102320.81
2022-10-07T05:33:46.134Z,102300.41
2022-10-07T05:41:21.787Z,102300.59
2022-10-07T05:48:57.154Z,102287.31
2022-10-07T05:56:30.984Z,102294.66
2022-10-07T06:04:08.090Z,102292.25
2022-10-07T06:11:59.321Z,102288.13
2022-10-07T06:19:34.598Z,102292.03
2022-10-07T06:27:08.417Z,102278.88
2022-10-07T06:34:45.136Z,102273.31
2022-10-07T06:42:18.858Z,102278.91
2022-10-07T06:49:54.022Z,102270.88
2022-10-07T06:57:44.926Z,102277.81
2022-10-07T07:05:20.667Z,102288.97
2022-10-07T07:12:54.901Z,102282.97
2022-10-07T07:20:35.111Z,102276.97
2022-10-07T07:28:09.093Z,102265.13
2022-10-07T07:35:44.950Z,102266.47
2022-10-07T07:43:18.612Z,102260.06
2022-10-07T07:50:54.308Z,102249.94
2022-10-07T07:58:28.492Z,102246.22
2022-10-07T08:06:04.460Z,102241.69
2022-10-07T08:13:39.693Z,102229.69
2022-10-07T08:21:17.555Z,102225.09
2022-10-07T08:28:51.243Z,102217.25
2022-10-07T08:36:28.382Z,102214.03
2022-10-07T08:44:16.904Z,102203.16
2022-10-07T08:51:59.458Z,102196.88
2022-10-07T08:59:35.526Z,102185.94
2022-10-07T09:07:14.533Z,102176.31
2022-10-07T09:14:51.671Z,102154.97
2022-10-07T09:22:32.883Z,102152.75
2022-10-07T09:30:08.404Z,102140.84
2022-10-07T09:37:57.985Z,102126.28
2022-10-07T09:45:33.683Z,102128.22
2022-10-07T09:53:19.966Z,102115.94
2022-10-07T10:00:55.782Z,102106.31
2022-10-07T10:08:33.949Z,102100.63
2022-10-07T10:16:34.183Z,102091.13
2022-10-07T10:24:15.175Z,102084.94
2022-10-07T10:32:13.233Z,102071.53
2022-10-07T10:40:02.332Z,102059.06
2022-10-07T10:47:50.819Z,102045.59
2022-10-07T10:55:48.906Z,102019.84
2022-10-07T11:03:35.215Z,101996.34
2022-10-07T11:11:15.947Z,101984.03
2022-10-07T11:18:55.583Z,101963.22
2022-10-07T11:26:37.693Z,101957.13
2022-10-07T11:34:19.955Z,101937.31
2022-10-07T11:42:02.487Z,101930.06
2022-10-07T11:49:50.047Z,101914.00
2022-10-07T11:57:27.372Z,101896.09
2022-10-07T12:05:02.329Z,101882.50
2022-10-07T12:12:50.043Z,101872.88
2022-10-07T12:20:46.832Z,101858.41
2022-10-07T12:28:27.909Z,101848.44
2022-10-07T12:36:25.592Z,101827.84
2022-10-07T12:44:13.987Z,101820.66
2022-10-07T12:51:47.939Z,101812.63
2022-10-07T12:59:49.672Z,101780.38
2022-10-07T13:08:00.736Z,101779.44
2022-10-07T13:15:42.743Z,101782.28
2022-10-07T13:23:23.185Z,101775.94
2022-10-07T13:31:15.584Z,101768.78
2022-10-07T13:38:50.826Z,101759.72
2022-10-07T13:46:27.561Z,101751.63
2022-10-07T13:54:04.671Z,101740.72
2022-10-07T14:01:40.778Z,101729.94
2022-10-07T14:09:19.652Z,101714.63
2022-10-07T14:16:59.321Z,101699.31
2022-10-07T14:24:33.316Z,101687.56
2022-10-07T14:32:32.093Z,101684.84
2022-10-07T14:40:18.089Z,101666.81
2022-10-07T14:47:53.215Z,101664.06
2022-10-07T14:55:29.228Z,101640.66
2022-10-07T15:03:04.400Z,101637.00
2022-10-07T15:10:41.088Z,101627.06
2022-10-07T15:18:16.234Z,101623.47
2022-10-07T15:25:49.789Z,101617.03
2022-10-07T15:33:25.018Z,101607.97
2022-10-07T15:41:00.627Z,101607.91
2022-10-07T15:48:36.135Z,101598.75
2022-10-07T15:56:10.650Z,101604.88
2022-10-07T16:03:48.043Z,101587.63
2022-10-07T16:11:21.939Z,101582.88
2022-10-07T16:19:00.030Z,101588.91
2022-10-07T16:26:35.825Z,101589.56
2022-10-07T16:34:12.311Z,101579.38
2022-10-07T16:41:46.839Z,101575.44
2022-10-07T16:49:21.805Z,101582.25
2022-10-07T16:56:57.627Z,101586.44
2022-10-07T17:04:32.621Z,101589.59
2022-10-07T17:12:07.616Z,101584.63
2022-10-07T17:19:42.675Z,101576.91
2022-10-07T17:27:16.735Z,101575.63
2022-10-07T17:34:51.907Z,101577.19
2022-10-07T17:45:04.548Z,101572.44
2022-10-07T17:52:38.244Z,101561.50
2022-10-07T18:00:14.133Z,101554.94
2022-10-07T18:07:48.785Z,101552.81
2022-10-07T18:15:24.129Z,101541.78
2022-10-07T18:22:58.890Z,101535.13
2022-10-07T18:30:34.149Z,101531.25
2022-10-07T18:38:07.955Z,101522.00
2022-10-07T18:45:43.271Z,101504.88
2022-10-07T18:53:17.383Z,101501.97
2022-10-07T19:00:52.554Z,101492.78
2022-10-07T19:08:26.618Z,101494.25
2022-10-07T19:16:04.655Z,101483.38
2022-10-07T19:23:38.454Z,101484.97
2022-10-07T19:31:15.575Z,101473.13
2022-10-07T19:38:52.528Z,101470.19
2022-10-07T19:46:30.227Z,101467.41
2022-10-07T19:54:10.155Z,101469.03
2022-10-07T20:01:47.485Z,101463.47
2022-10-07T20:09:22.508Z,101455.19
2022-10-07T20:16:58.094Z,101452.34
2022-10-07T20:24:32.021Z,101444.09
2022-10-07T20:32:07.301Z,101433.16
2022-10-07T20:39:58.524Z,101424.06
2022-10-07T20:47:35.443Z,101418.53
2022-10-07T20:55:11.589Z,101419.22
2022-10-07T21:02:47.099Z,101415.41
2022-10-07T21:10:21.001Z,101413.50
2022-10-07T21:17:56.087Z,101402.72
2022-10-07T21:25:30.340Z,101398.16
2022-10-07T21:33:05.670Z,101392.50
2022-10-07T21:40:39.488Z,101392.38
2022-10-07T21:48:14.747Z,101376.19
2022-10-07T21:55:49.422Z,101370.81
2022-10-07T22:03:24.719Z,101359.00
2022-10-07T22:11:01.078Z,101347.31
2022-10-07T22:18:37.419Z,101340.13
2022-10-07T22:26:13.674Z,101327.47
2022-10-07T22:33:53.727Z,101316.72
2022-10-07T22:41:27.967Z,101312.22
2022-10-07T22:49:03.111Z,101297.00
2022-10-07T22:56:36.962Z,101290.69
2022-10-07T23:04:12.091Z,101279.97
2022-10-07T23:11:45.887Z,101273.63
2022-10-07T23:19:21.092Z,101262.88
2022-10-07T23:26:55.008Z,101261.88
2022-10-07T23:34:30.247Z,101252.91
2022-10-07T23:42:04.130Z,101251.81
2022-10-07T23:49:39.253Z,101241.13
2022-10-07T23:57:12.963Z,101233.00
